createdAt,value
2022-09-22T00:00:13.895Z,8.65
2022-09-22T00:02:41.011Z,9.40
2022-09-22T00:05:08.352Z,9.05
2022-09-22T00:07:35.571Z,8.88
2022-09-22T00:10:03.267Z,9.98
2022-09-22T00:12:30.383Z,9.93
2022-09-22T00:14:58.702Z,9.85
2022-09-22T00:17:25.858Z,9.85
2022-09-22T00:19:52.971Z,10.23
2022-09-22T00:22:20.153Z,9.20
2022-09-22T00:24:47.285Z,10.25
2022-09-22T00:27:14.454Z,8.57
2022-09-22T00:29:41.861Z,9.30
2022-09-22T00:32:09.414Z,9.32
2022-09-22T00:34:36.625Z,9.73
2022-09-22T00:37:03.779Z,10.18
2022-09-22T00:39:31.887Z,8.65
2022-09-22T00:41:59.071Z,9.77
2022-09-22T00:44:34.516Z,9.13
2022-09-22T00:47:04.787Z,9.15
2022-09-22T00:49:44.120Z,9.85
2022-09-22T00:52:11.885Z,9.57
2022-09-22T00:54:40.162Z,8.80
2022-09-22T00:57:07.261Z,8.95
2022-09-22T00:59:34.637Z,8.75
2022-09-22T01:02:01.849Z,8.65
2022-09-22T01:04:29.384Z,8.10
2022-09-22T01:06:57.939Z,9.43
2022-09-22T01:09:25.388Z,8.45
2022-09-22T01:11:52.950Z,9.27
2022-09-22T01:14:26.308Z,7.97
2022-09-22T01:16:58.863Z,9.10
2022-09-22T01:19:28.777Z,8.75
2022-09-22T01:22:08.616Z,8.55
2022-09-22T01:24:51.127Z,8.95
2022-09-22T01:27:36.715Z,8.20
2022-09-22T01:30:16.156Z,8.15
2022-09-22T01:32:46.101Z,8.05
2022-09-22T01:35:27.357Z,7.50
2022-09-22T01:38:05.165Z,7.28
2022-09-22T01:40:32.487Z,8.23
2022-09-22T01:43:03.734Z,7.95
2022-09-22T01:45:31.476Z,7.38
2022-09-22T01:48:00.028Z,8.20
2022-09-22T01:50:32.119Z,7.65
2022-09-22T01:53:02.063Z,8.07
2022-09-22T01:55:32.242Z,7.63
2022-09-22T01:58:02.464Z,7.53
2022-09-22T02:00:30.455Z,7.40
2022-09-22T02:02:57.630Z,7.75
2022-09-22T02:05:33.464Z,8.02
2022-09-22T02:08:02.486Z,7.47
2022-09-22T02:10:33.037Z,7.65
2022-09-22T02:13:01.167Z,7.80
2022-09-22T02:15:47.657Z,7.65
2022-09-22T02:18:18.780Z,7.60
2022-09-22T02:20:45.960Z,7.88
2022-09-22T02:23:13.707Z,7.07
2022-09-22T02:25:41.782Z,7.93
2022-09-22T02:28:10.123Z,7.70
2022-09-22T02:30:37.247Z,7.60
2022-09-22T02:33:04.796Z,7.70
2022-09-22T02:35:33.408Z,7.32
2022-09-22T02:38:06.590Z,7.45
2022-09-22T02:40:43.885Z,7.28
2022-09-22T02:43:34.524Z,6.60
2022-09-22T02:46:23.124Z,7.05
2022-09-22T02:48:52.253Z,6.88
2022-09-22T02:51:19.531Z,7.63
2022-09-22T02:53:46.687Z,6.68
2022-09-22T02:56:13.879Z,7.15
2022-09-22T02:58:41.004Z,7.43
2022-09-22T03:01:08.283Z,7.43
2022-09-22T03:03:35.549Z,7.20
2022-09-22T03:06:02.719Z,9.10
2022-09-22T03:08:29.897Z,6.90
2022-09-22T03:10:57.037Z,7.38
2022-09-22T03:13:24.188Z,6.95
2022-09-22T03:15:51.379Z,6.35
2022-09-22T03:18:18.725Z,7.55
2022-09-22T03:20:46.020Z,6.50
2022-09-22T03:23:13.235Z,6.82
2022-09-22T03:25:40.531Z,6.50
2022-09-22T03:28:07.648Z,7.15
2022-09-22T03:30:36.233Z,7.40
2022-09-22T03:33:03.672Z,7.50
2022-09-22T03:35:30.936Z,6.78
2022-09-22T03:37:58.087Z,6.35
2022-09-22T03:40:25.304Z,6.97
2022-09-22T03:42:52.605Z,6.07
2022-09-22T03:45:19.765Z,6.50
2022-09-22T03:47:46.948Z,6.22
2022-09-22T03:50:14.267Z,6.90
2022-09-22T03:52:45.060Z,6.55
2022-09-22T03:55:12.292Z,6.35
2022-09-22T03:57:39.972Z,6.03
2022-09-22T04:00:07.659Z,6.63
2022-09-22T04:02:35.220Z,6.75
2022-09-22T04:05:02.498Z,6.63
2022-09-22T04:07:29.709Z,6.68
2022-09-22T04:09:57.609Z,7.10
2022-09-22T04:12:24.789Z,6.38
2022-09-22T04:14:51.981Z,7.13
2022-09-22T04:17:20.402Z,6.13
2022-09-22T04:19:48.097Z,6.15
2022-09-22T04:22:15.249Z,6.43
2022-09-22T04:24:42.390Z,7.35
2022-09-22T04:27:19.706Z,6.78
2022-09-22T04:29:47.877Z,6.32
2022-09-22T04:32:15.177Z,7.35
2022-09-22T04:34:43.123Z,6.63
2022-09-22T04:37:10.720Z,7.15
2022-09-22T04:39:38.242Z,7.80
2022-09-22T04:42:05.533Z,6.85
2022-09-22T04:44:35.170Z,7.65
2022-09-22T04:47:02.787Z,7.05
2022-09-22T04:49:30.020Z,6.35
2022-09-22T04:51:57.475Z,7.03
2022-09-22T04:54:24.634Z,7.25
2022-09-22T04:56:51.771Z,5.95
2022-09-22T04:59:18.970Z,7.25
2022-09-22T05:01:46.245Z,6.90
2022-09-22T05:04:13.433Z,6.68
2022-09-22T05:06:42.272Z,7.00
2022-09-22T05:09:09.436Z,7.40
2022-09-22T05:11:36.663Z,7.43
2022-09-22T05:14:03.887Z,6.70
2022-09-22T05:16:32.198Z,6.47
2022-09-22T05:18:59.486Z,7.10
2022-09-22T05:21:26.673Z,7.13
2022-09-22T05:23:56.015Z,8.55
2022-09-22T05:26:23.208Z,7.43
2022-09-22T05:28:51.625Z,8.07
2022-09-22T05:31:18.989Z,7.35
2022-09-22T05:33:46.546Z,7.40
2022-09-22T05:36:13.735Z,7.85
2022-09-22T05:38:40.975Z,8.27
2022-09-22T05:41:08.185Z,7.57
2022-09-22T05:43:35.392Z,7.97
2022-09-22T05:46:02.702Z,7.28
2022-09-22T05:48:31.345Z,7.97
2022-09-22T05:50:59.108Z,7.38
2022-09-22T05:53:26.320Z,8.20
2022-09-22T05:55:53.460Z,8.50
2022-09-22T05:58:20.609Z,8.32
2022-09-22T06:00:47.811Z,8.40
2022-09-22T06:03:15.238Z,8.60
2022-09-22T06:05:42.724Z,8.13
2022-09-22T06:08:09.936Z,8.63
2022-09-22T06:10:38.451Z,8.85
2022-09-22T06:13:06.764Z,9.30
2022-09-22T06:15:35.992Z,10.52
2022-09-22T06:18:04.160Z,9.50
2022-09-22T06:20:31.952Z,9.75
2022-09-22T06:22:59.968Z,9.75
2022-09-22T06:25:28.417Z,10.88
2022-09-22T06:28:00.110Z,10.00
2022-09-22T06:30:27.253Z,11.20
2022-09-22T06:32:54.867Z,11.57
2022-09-22T06:35:22.009Z,12.30
2022-09-22T06:37:56.777Z,11.88
2022-09-22T06:40:25.023Z,12.13
2022-09-22T06:42:57.161Z,11.45
2022-09-22T06:45:26.078Z,10.80
2022-09-22T06:47:53.416Z,14.18
2022-09-22T06:50:20.607Z,13.18
2022-09-22T06:52:48.944Z,14.45
2022-09-22T06:55:19.360Z,13.25
2022-09-22T06:57:46.518Z,13.85
2022-09-22T07:00:15.165Z,14.57
2022-09-22T07:02:42.364Z,13.15
2022-09-22T07:05:09.608Z,12.45
2022-09-22T07:07:36.752Z,12.35
2022-09-22T07:10:04.020Z,10.82
2022-09-22T07:12:31.480Z,10.18
2022-09-22T07:14:58.648Z,10.30
2022-09-22T07:17:26.329Z,9.27
2022-09-22T07:19:56.278Z,9.93
2022-09-22T07:22:23.750Z,9.75
2022-09-22T07:24:50.945Z,8.48
2022-09-22T07:27:23.152Z,9.25
2022-09-22T07:29:50.781Z,8.50
2022-09-22T07:32:18.520Z,8.02
2022-09-22T07:34:45.690Z,7.78
2022-09-22T07:37:15.493Z,7.22
2022-09-22T07:39:46.089Z,7.10
2022-09-22T07:42:13.536Z,6.88
2022-09-22T07:44:59.453Z,7.63
2022-09-22T07:50:12.418Z,6.07
2022-09-22T07:52:40.050Z,5.82
2022-09-22T07:55:07.612Z,5.93
2022-09-22T07:57:34.750Z,6.63
2022-09-22T08:00:02.064Z,6.05
2022-09-22T08:02:29.768Z,6.20
2022-09-22T08:05:02.989Z,5.57
2022-09-22T08:07:32.923Z,5.43
2022-09-22T08:10:00.183Z,5.60
2022-09-22T08:12:28.270Z,5.97
2022-09-22T08:14:58.068Z,5.53
2022-09-22T08:17:25.273Z,6.30
2022-09-22T08:19:52.500Z,4.93
2022-09-22T08:22:19.759Z,4.88
2022-09-22T08:24:46.941Z,4.72
2022-09-22T08:27:14.250Z,4.85
2022-09-22T08:29:43.779Z,4.05
2022-09-22T08:32:10.921Z,4.55
2022-09-22T08:34:38.064Z,4.45
2022-09-22T08:37:05.329Z,4.22
2022-09-22T08:39:32.521Z,4.35
2022-09-22T08:42:19.230Z,4.15
2022-09-22T08:45:00.513Z,4.68
2022-09-22T08:48:09.474Z,3.55
2022-09-22T08:50:59.179Z,3.85
2022-09-22T08:53:30.385Z,3.53
2022-09-22T08:56:00.573Z,3.55
2022-09-22T08:58:32.042Z,3.88
2022-09-22T09:01:19.517Z,3.30
2022-09-22T09:03:46.712Z,3.00
2022-09-22T09:06:17.093Z,3.22
2022-09-22T09:09:05.339Z,3.25
2022-09-22T09:11:51.387Z,2.97
2022-09-22T09:14:18.587Z,2.53
2022-09-22T09:16:48.492Z,2.85
2022-09-22T09:19:18.308Z,2.67
2022-09-22T09:21:52.442Z,2.15
2022-09-22T09:27:27.354Z,2.08
2022-09-22T09:30:00.530Z,2.00
2022-09-22T09:32:37.453Z,1.85
2022-09-22T09:35:06.189Z,2.63
2022-09-22T09:37:34.652Z,2.13
2022-09-22T09:40:04.551Z,1.70
2022-09-22T09:42:35.215Z,2.25
2022-09-22T09:45:03.903Z,1.80
2022-09-22T09:48:00.371Z,1.40
2022-09-22T09:50:32.532Z,1.88
2022-09-22T09:53:00.645Z,1.63
2022-09-22T09:55:28.084Z,1.90
2022-09-22T09:58:09.302Z,1.77
2022-09-22T10:00:53.624Z,1.55
2022-09-22T10:03:26.922Z,1.63
2022-09-22T10:06:07.320Z,1.90
2022-09-22T10:08:42.988Z,2.10
2022-09-22T10:11:13.120Z,1.70
2022-09-22T10:13:41.374Z,1.67
2022-09-22T10:16:11.812Z,1.67
2022-09-22T10:18:40.828Z,1.75
2022-09-22T10:21:20.992Z,1.88
2022-09-22T10:23:48.280Z,1.98
2022-09-22T10:26:17.611Z,1.27
2022-09-22T10:28:47.279Z,1.85
2022-09-22T10:31:24.789Z,1.90
2022-09-22T10:33:59.250Z,1.45
2022-09-22T10:36:28.724Z,1.60
2022-09-22T10:38:59.612Z,2.10
2022-09-22T10:41:30.959Z,1.70
2022-09-22T10:44:35.071Z,1.40
2022-09-22T10:47:13.524Z,1.40
2022-09-22T10:49:48.578Z,1.40
2022-09-22T10:54:43.393Z,1.73
2022-09-22T10:57:19.416Z,1.88
2022-09-22T11:00:13.122Z,1.70
2022-09-22T11:02:49.584Z,1.70
2022-09-22T11:05:50.628Z,1.55
2022-09-22T11:08:37.781Z,2.13
2022-09-22T11:11:23.445Z,2.30
2022-09-22T11:13:53.824Z,2.40
2022-09-22T11:16:39.712Z,2.20
2022-09-22T11:19:17.159Z,3.33
2022-09-22T11:21:53.215Z,3.00
2022-09-22T11:24:32.661Z,2.38
2022-09-22T11:27:01.585Z,2.30
2022-09-22T11:30:10.659Z,2.85
2022-09-22T11:32:38.588Z,3.03
2022-09-22T11:35:23.806Z,3.05
2022-09-22T11:37:54.138Z,3.20
2022-09-22T11:40:32.916Z,2.78
2022-09-22T11:43:03.750Z,2.60
2022-09-22T11:45:57.850Z,2.85
2022-09-22T11:48:28.247Z,2.83
2022-09-22T11:50:56.143Z,2.35
2022-09-22T11:53:23.699Z,2.35
2022-09-22T11:56:03.323Z,2.72
2022-09-22T11:58:32.951Z,2.55
2022-09-22T12:01:07.477Z,2.53
2022-09-22T12:03:40.540Z,2.38
2022-09-22T12:06:13.101Z,2.20
2022-09-22T12:08:45.463Z,2.00
2022-09-22T12:11:14.216Z,2.58
2022-09-22T12:13:43.729Z,2.50
2022-09-22T12:16:18.292Z,3.20
2022-09-22T12:18:52.751Z,2.92
2022-09-22T12:21:38.863Z,2.42
2022-09-22T12:24:09.588Z,2.55
2022-09-22T12:26:38.045Z,2.38
2022-09-22T12:29:14.437Z,2.30
2022-09-22T12:31:43.480Z,2.50
2022-09-22T12:34:18.801Z,2.20
2022-09-22T12:36:46.358Z,2.08
2022-09-22T12:39:22.766Z,2.85
2022-09-22T12:42:13.092Z,2.10
2022-09-22T12:45:06.520Z,2.67
2022-09-22T12:47:35.852Z,1.95
2022-09-22T12:50:06.909Z,2.17
2022-09-22T12:52:38.027Z,2.47
2022-09-22T12:55:23.801Z,1.95
2022-09-22T12:57:52.440Z,1.85
2022-09-22T13:00:32.163Z,2.25
2022-09-22T13:03:01.325Z,1.65
2022-09-22T13:05:28.499Z,1.80
2022-09-22T13:07:56.167Z,1.70
2022-09-22T13:10:26.548Z,1.88
2022-09-22T13:13:05.927Z,1.75
2022-09-22T13:15:33.177Z,2.70
2022-09-22T13:18:00.448Z,2.30
2022-09-22T13:20:34.589Z,1.77
2022-09-22T13:23:05.840Z,2.22
2022-09-22T13:25:33.005Z,2.67
2022-09-22T13:28:11.325Z,2.00
2022-09-22T13:30:38.936Z,3.28
2022-09-22T13:33:06.259Z,20.60
2022-09-22T13:35:38.222Z,2.28
2022-09-22T13:38:05.645Z,2.30
2022-09-22T13:40:34.930Z,2.63
2022-09-22T13:43:06.092Z,8.35
2022-09-22T13:45:33.378Z,2.30
2022-09-22T13:48:08.668Z,2.40
2022-09-22T13:53:02.986Z,1.90
2022-09-22T13:55:37.453Z,2.08
2022-09-22T13:58:05.596Z,2.05
2022-09-22T14:00:45.074Z,1.42
2022-09-22T14:03:22.410Z,1.58
2022-09-22T14:05:53.950Z,1.58
2022-09-22T14:08:24.475Z,1.23
2022-09-22T14:10:52.620Z,1.58
2022-09-22T14:13:38.721Z,2.00
2022-09-22T14:16:09.049Z,1.75
2022-09-22T14:18:40.095Z,1.90
2022-09-22T14:21:09.676Z,1.60
2022-09-22T14:23:37.269Z,2.15
2022-09-22T14:26:20.792Z,1.90
2022-09-22T14:28:48.077Z,2.03
2022-09-22T14:31:16.148Z,2.08
2022-09-22T14:33:45.573Z,1.65
2022-09-22T14:36:16.101Z,1.90
2022-09-22T14:38:49.451Z,1.40
2022-09-22T14:41:26.808Z,1.15
2022-09-22T14:43:55.143Z,1.45
2022-09-22T14:46:25.578Z,1.30
2022-09-22T14:48:53.388Z,1.10
2022-09-22T14:51:22.517Z,1.10
2022-09-22T14:53:58.725Z,1.38
2022-09-22T14:56:28.259Z,0.80
2022-09-22T14:58:59.906Z,1.10
2022-09-22T15:01:48.227Z,1.10
2022-09-22T15:04:23.213Z,1.33
2022-09-22T15:06:51.558Z,1.30
2022-09-22T15:09:25.800Z,1.98
2022-09-22T15:11:54.851Z,1.15
2022-09-22T15:14:25.848Z,1.48
2022-09-22T15:16:53.032Z,1.77
2022-09-22T15:19:20.494Z,1.63
2022-09-22T15:21:48.445Z,1.40
2022-09-22T15:24:21.192Z,1.48
2022-09-22T15:26:48.415Z,1.58
2022-09-22T15:29:17.445Z,1.92
2022-09-22T15:31:44.784Z,1.05
2022-09-22T15:34:16.446Z,1.50
2022-09-22T15:36:46.632Z,1.80
2022-09-22T15:39:24.256Z,1.50
2022-09-22T15:41:52.316Z,1.38
2022-09-22T15:44:19.535Z,1.52
2022-09-22T15:46:51.448Z,1.58
2022-09-22T15:49:22.379Z,1.95
2022-09-22T15:51:50.042Z,1.63
2022-09-22T15:54:18.430Z,1.90
2022-09-22T15:56:47.970Z,1.65
2022-09-22T15:59:26.741Z,1.48
2022-09-22T16:01:56.603Z,1.30
2022-09-22T16:04:24.141Z,1.60
2022-09-22T16:06:56.301Z,1.58
2022-09-22T16:09:23.462Z,1.48
2022-09-22T16:11:50.640Z,2.20
2022-09-22T16:14:18.198Z,1.73
2022-09-22T16:16:45.380Z,2.13
2022-09-22T16:19:12.543Z,2.83
2022-09-22T16:21:40.965Z,2.10
2022-09-22T16:24:09.493Z,1.80
2022-09-22T16:26:37.944Z,2.05
2022-09-22T16:29:07.475Z,2.22
2022-09-22T16:31:35.462Z,1.83
2022-09-22T16:34:03.588Z,1.92
2022-09-22T16:36:33.098Z,1.73
2022-09-22T16:39:01.866Z,1.60
2022-09-22T16:41:30.251Z,1.80
2022-09-22T16:43:57.823Z,1.80
2022-09-22T16:46:28.818Z,2.03
2022-09-22T16:48:57.296Z,1.90
2022-09-22T16:51:24.740Z,2.05
2022-09-22T16:53:52.845Z,2.10
2022-09-22T16:56:20.990Z,2.25
2022-09-22T16:58:48.688Z,2.45
2022-09-22T17:01:19.649Z,2.60
2022-09-22T17:03:49.325Z,2.25
2022-09-22T17:06:17.919Z,2.00
2022-09-22T17:08:45.932Z,2.22
2022-09-22T17:11:15.816Z,2.72
2022-09-22T17:13:46.350Z,2.75
2022-09-22T17:16:30.313Z,2.83
2022-09-22T17:18:59.861Z,2.88
2022-09-22T17:21:30.161Z,3.33
2022-09-22T17:24:02.784Z,3.10
2022-09-22T17:26:31.354Z,3.25
2022-09-22T17:28:59.764Z,3.25
2022-09-22T17:31:28.090Z,4.18
2022-09-22T17:33:55.440Z,3.58
2022-09-22T17:36:24.193Z,3.35
2022-09-22T17:38:52.557Z,3.47
2022-09-22T17:41:21.276Z,3.63
2022-09-22T17:43:57.543Z,3.42
2022-09-22T17:46:25.857Z,3.75
2022-09-22T17:49:12.072Z,4.45
2022-09-22T17:52:05.435Z,3.85
2022-09-22T17:54:55.527Z,4.15
2022-09-22T17:57:29.716Z,5.55
2022-09-22T17:59:57.623Z,4.72
2022-09-22T18:02:26.118Z,5.20
2022-09-22T18:04:53.475Z,4.53
2022-09-22T18:07:22.072Z,5.43
2022-09-22T18:09:50.130Z,6.28
2022-09-22T18:12:21.557Z,6.07
2022-09-22T18:14:50.207Z,5.78
2022-09-22T18:17:19.037Z,6.22
2022-09-22T18:19:46.283Z,6.93
2022-09-22T18:22:17.008Z,6.65
2022-09-22T18:24:45.360Z,6.35
2022-09-22T18:27:13.304Z,6.40
2022-09-22T18:29:40.505Z,5.60
2022-09-22T18:32:07.722Z,5.88
2022-09-22T18:34:34.849Z,7.15
2022-09-22T18:37:04.548Z,6.03
2022-09-22T18:39:32.018Z,6.20
2022-09-22T18:41:59.452Z,6.50
2022-09-22T18:44:29.061Z,6.22
2022-09-22T18:47:01.186Z,6.88
2022-09-22T18:49:32.090Z,7.07
2022-09-22T18:52:01.462Z,7.03
2022-09-22T18:54:30.668Z,7.35
2022-09-22T18:56:58.259Z,7.35
2022-09-22T18:59:26.638Z,7.55
2022-09-22T19:01:54.560Z,7.40
2022-09-22T19:04:23.230Z,8.00
2022-09-22T19:07:10.105Z,8.07
2022-09-22T19:09:38.012Z,7.47
2022-09-22T19:12:09.216Z,7.97
2022-09-22T19:14:38.322Z,8.85
2022-09-22T19:17:07.141Z,7.95
2022-09-22T19:19:37.052Z,8.02
2022-09-22T19:22:08.210Z,8.40
2022-09-22T19:24:36.281Z,8.23
2022-09-22T19:27:04.637Z,7.95
2022-09-22T19:29:32.423Z,7.82
2022-09-22T19:32:00.444Z,9.13
2022-09-22T19:34:27.962Z,8.55
2022-09-22T19:36:55.669Z,8.57
2022-09-22T19:39:23.617Z,9.43
2022-09-22T19:41:52.400Z,9.65
2022-09-22T19:44:20.392Z,9.80
2022-09-22T19:46:47.963Z,10.02
2022-09-22T19:49:15.928Z,10.20
2022-09-22T19:51:43.152Z,10.23
2022-09-22T19:54:10.549Z,10.63
2022-09-22T19:56:37.816Z,11.90
2022-09-22T19:59:07.163Z,11.18
2022-09-22T20:01:36.497Z,11.07
2022-09-22T20:04:04.509Z,12.10
2022-09-22T20:06:31.988Z,12.35
2022-09-22T20:09:05.337Z,12.82
2022-09-22T20:11:38.622Z,12.57
2022-09-22T20:14:22.541Z,14.25
2022-09-22T20:16:56.999Z,13.90
2022-09-22T20:19:25.878Z,14.45
2022-09-22T20:21:54.530Z,13.77
2022-09-22T20:24:23.032Z,14.50
2022-09-22T20:26:50.383Z,14.15
2022-09-22T20:29:17.909Z,15.27
2022-09-22T20:31:45.172Z,14.23
2022-09-22T20:34:15.489Z,14.77
2022-09-22T20:36:43.288Z,13.85
2022-09-22T20:39:15.181Z,14.40
2022-09-22T20:41:42.782Z,14.55
2022-09-22T20:44:16.220Z,14.27
2022-09-22T20:46:43.490Z,13.32
2022-09-22T20:49:14.324Z,13.52
2022-09-22T20:51:42.052Z,13.30
2022-09-22T20:54:09.245Z,13.10
2022-09-22T20:56:39.556Z,13.95
2022-09-22T20:59:09.785Z,13.25
2022-09-22T21:01:37.033Z,13.68
2022-09-22T21:04:04.968Z,14.05
2022-09-22T21:06:32.132Z,13.82
2022-09-22T21:09:17.863Z,14.10
2022-09-22T21:11:45.065Z,13.95
2022-09-22T21:14:12.217Z,14.30
2022-09-22T21:16:39.481Z,14.10
2022-09-22T21:19:07.589Z,13.90
2022-09-22T21:21:38.543Z,13.88
2022-09-22T21:24:05.881Z,13.27
2022-09-22T21:26:33.473Z,13.13
2022-09-22T21:29:00.811Z,13.02
2022-09-22T21:31:28.518Z,14.63
2022-09-22T21:33:55.901Z,13.20
2022-09-22T21:36:23.806Z,13.63
2022-09-22T21:38:55.260Z,14.05
2022-09-22T21:41:23.778Z,13.85
2022-09-22T21:43:51.469Z,13.90
2022-09-22T21:46:19.956Z,13.98
2022-09-22T21:48:47.257Z,14.45
2022-09-22T21:51:14.793Z,13.88
2022-09-22T21:53:45.252Z,14.77
2022-09-22T21:56:13.249Z,14.02
2022-09-22T21:58:41.719Z,14.25
2022-09-22T22:01:16.322Z,14.63
2022-09-22T22:03:44.210Z,14.40
2022-09-22T22:06:12.259Z,14.13
2022-09-22T22:09:12.055Z,14.23
2022-09-22T22:11:45.694Z,13.27
2022-09-22T22:14:13.840Z,15.23
2022-09-22T22:16:42.343Z,14.05
2022-09-22T22:19:10.346Z,13.73
2022-09-22T22:21:38.474Z,13.85
2022-09-22T22:24:17.885Z,14.63
2022-09-22T22:26:57.030Z,14.00
2022-09-22T22:29:25.676Z,15.35
2022-09-22T22:31:53.180Z,14.27
2022-09-22T22:34:21.497Z,15.57
2022-09-22T22:36:49.004Z,14.82
2022-09-22T22:39:16.451Z,14.88
2022-09-22T22:41:44.523Z,15.80
2022-09-22T22:44:12.362Z,14.95
2022-09-22T22:46:39.592Z,15.88
2022-09-22T22:49:11.712Z,16.40
2022-09-22T22:51:40.177Z,14.80
2022-09-22T22:54:07.472Z,16.13
2022-09-22T22:56:34.672Z,14.82
2022-09-22T22:59:01.960Z,15.55
2022-09-22T23:01:30.520Z,16.48
2022-09-22T23:03:58.923Z,15.60
2022-09-22T23:06:27.919Z,15.30
2022-09-22T23:08:55.223Z,15.98
2022-09-22T23:11:23.263Z,16.10
2022-09-22T23:13:54.540Z,16.38
2022-09-22T23:16:23.731Z,16.90
2022-09-22T23:18:51.617Z,16.55
2022-09-22T23:21:19.700Z,17.23
2022-09-22T23:23:46.925Z,15.93
2022-09-22T23:26:14.886Z,17.17
2022-09-22T23:28:42.136Z,16.13
2022-09-22T23:31:11.341Z,16.02
2022-09-22T23:33:39.531Z,16.52
2022-09-22T23:36:07.604Z,16.23
2022-09-22T23:38:35.545Z,17.17
2022-09-22T23:41:03.133Z,16.92
2022-09-22T23:43:31.585Z,17.23
2022-09-22T23:45:59.798Z,17.67
2022-09-22T23:48:30.983Z,17.17
2022-09-22T23:50:58.724Z,17.38
2022-09-22T23:53:26.616Z,17.00
2022-09-22T23:55:54.107Z,17.67
2022-09-22T23:58:21.339Z,18.67
